Time;durP1;ratioP1;P1;durP2;ratioP2;P2;SDS_P1;SDS_P2;PMS_P1;PMS_P2;Temp;Humidity;BMP_temperature;BMP_pressure;BME280_temperature;BME280_humidity;BME280_pressure;Samples;Min_cycle;Max_cycle;Signal;HPM_P1;HPM_P2
2021/01/27 00:01:31;;;;;;;6.85;5.53;;;5.60;99.90;;;;;;5111892;28;20217;-74
2021/01/27 00:03:58;;;;;;;6.43;5.82;;;5.60;99.90;;;;;;5113537;28;20211;-75
2021/01/27 00:06:24;;;;;;;5.60;4.97;;;5.60;99.90;;;;;;5110974;28;20201;-75
2021/01/27 00:08:50;;;;;;;5.88;4.97;;;5.60;99.90;;;;;;5102677;28;20267;-75
2021/01/27 00:11:16;;;;;;;5.90;4.95;;;5.60;99.90;;;;;;5108080;28;20204;-75
2021/01/27 00:13:43;;;;;;;5.47;4.85;;;5.60;99.90;;;;;;5110243;28;20197;-76
2021/01/27 00:16:09;;;;;;;6.28;5.68;;;5.60;99.90;;;;;;5105875;28;20243;-81
2021/01/27 00:18:36;;;;;;;6.53;5.50;;;5.60;99.90;;;;;;5095193;28;20207;-75
2021/01/27 00:21:02;;;;;;;7.63;4.72;;;5.60;99.90;;;;;;5095326;28;20220;-77
2021/01/27 00:23:29;;;;;;;7.35;5.63;;;5.60;99.90;;;;;;5106428;28;20200;-75
2021/01/27 00:25:55;;;;;;;7.10;5.15;;;5.50;99.90;;;;;;5111921;28;20205;-75
2021/01/27 00:28:21;;;;;;;6.07;5.47;;;5.60;99.90;;;;;;5097226;28;20200;-76
2021/01/27 00:30:47;;;;;;;7.40;5.28;;;5.50;99.90;;;;;;5110870;28;20193;-76
2021/01/27 00:33:16;;;;;;;6.72;6.10;;;5.50;99.90;;;;;;5108164;28;20200;-75
2021/01/27 00:35:45;;;;;;;5.18;4.68;;;5.50;99.90;;;;;;5096287;28;20197;-74
2021/01/27 00:38:15;;;;;;;7.45;5.38;;;5.50;99.90;;;;;;5093393;28;20205;-74
2021/01/27 00:40:42;;;;;;;6.05;5.35;;;5.50;99.90;;;;;;5106510;28;20225;-74
2021/01/27 00:43:08;;;;;;;7.60;5.18;;;5.50;99.90;;;;;;5096614;28;20220;-74
2021/01/27 00:45:34;;;;;;;5.60;5.10;;;5.50;99.90;;;;;;5110181;28;20220;-75
2021/01/27 00:48:01;;;;;;;7.40;5.53;;;5.50;99.90;;;;;;5110788;28;20201;-75
2021/01/27 00:50:27;;;;;;;8.50;6.50;;;5.50;99.90;;;;;;5098097;28;20201;-75
2021/01/27 00:52:54;;;;;;;6.25;4.90;;;5.40;99.90;;;;;;5091764;28;20224;-75
2021/01/27 00:55:22;;;;;;;5.70;4.85;;;5.50;99.90;;;;;;5094136;28;20671;-75
2021/01/27 00:57:48;;;;;;;5.85;4.70;;;5.50;99.90;;;;;;5112068;28;20208;-75
2021/01/27 01:00:18;;;;;;;5.88;4.82;;;5.50;99.90;;;;;;5094543;28;20254;-75
2021/01/27 01:02:44;;;;;;;8.70;5.03;;;5.50;99.90;;;;;;5091560;28;20197;-75
2021/01/27 01:05:13;;;;;;;5.03;4.25;;;5.50;99.90;;;;;;5100830;28;20192;-75
2021/01/27 01:07:43;;;;;;;5.95;4.55;;;5.50;99.90;;;;;;5091218;28;20197;-75
2021/01/27 01:10:11;;;;;;;4.88;4.03;;;5.50;99.90;;;;;;5107055;28;20200;-76
2021/01/27 01:12:38;;;;;;;8.00;5.28;;;5.50;99.90;;;;;;5111793;28;20193;-76
2021/01/27 01:15:06;;;;;;;6.82;5.20;;;5.40;99.90;;;;;;5107620;28;20197;-76
2021/01/27 01:17:32;;;;;;;4.85;4.20;;;5.40;99.90;;;;;;5104597;28;20203;-75
2021/01/27 01:19:59;;;;;;;5.18;4.68;;;5.50;99.90;;;;;;5101536;28;20205;-75
2021/01/27 01:22:25;;;;;;;4.90;4.10;;;5.40;99.90;;;;;;5097515;28;20286;-75
2021/01/27 01:24:51;;;;;;;5.40;4.25;;;5.40;99.90;;;;;;5109356;28;20201;-76
2021/01/27 01:27:19;;;;;;;5.97;4.05;;;5.50;99.90;;;;;;5097386;28;20262;-76
2021/01/27 01:29:45;;;;;;;5.53;5.00;;;5.50;99.90;;;;;;5108259;28;20205;-77
2021/01/27 01:32:11;;;;;;;4.30;3.88;;;5.50;99.90;;;;;;5111124;28;20196;-76
2021/01/27 01:34:37;;;;;;;4.75;4.35;;;5.40;99.90;;;;;;5109214;28;20671;-76
2021/01/27 01:37:03;;;;;;;6.65;4.50;;;5.40;99.90;;;;;;5095002;28;20660;-75
2021/01/27 01:39:30;;;;;;;4.72;4.30;;;5.50;99.90;;;;;;5102361;28;20200;-75
2021/01/27 01:41:56;;;;;;;4.82;3.92;;;5.50;99.90;;;;;;5111544;28;20228;-75
2021/01/27 01:44:23;;;;;;;4.50;3.78;;;5.40;99.90;;;;;;5110685;28;20201;-75
2021/01/27 01:46:49;;;;;;;4.90;3.67;;;5.50;99.90;;;;;;5105582;28;20247;-75
2021/01/27 01:49:16;;;;;;;4.53;3.88;;;5.50;99.90;;;;;;5109619;28;20201;-75
2021/01/27 01:51:46;;;;;;;4.15;3.75;;;5.50;99.90;;;;;;5111478;28;20208;-75
2021/01/27 01:54:20;;;;;;;3.70;3.40;;;5.50;99.90;;;;;;5107591;28;20671;-75
2021/01/27 01:56:51;;;;;;;5.20;3.67;;;5.50;99.90;;;;;;5097492;28;20197;-75
2021/01/27 01:59:18;;;;;;;4.10;3.35;;;5.50;99.90;;;;;;5108468;28;20234;-75
2021/01/27 02:01:49;;;;;;;7.72;4.40;;;5.50;99.90;;;;;;5110892;28;20270;-75
2021/01/27 02:04:16;;;;;;;7.88;3.90;;;5.50;99.90;;;;;;5107985;28;20202;-75
2021/01/27 02:06:42;;;;;;;4.32;3.80;;;5.40;99.90;;;;;;5109116;28;20201;-75
2021/01/27 02:09:09;;;;;;;5.00;3.80;;;5.40;99.90;;;;;;5108008;28;20242;-75
2021/01/27 02:11:53;;;;;;;3.80;3.50;;;5.40;99.90;;;;;;5111295;28;20208;-75
2021/01/27 02:14:38;;;;;;;5.32;3.45;;;5.40;99.90;;;;;;5107963;28;20193;-74
2021/01/27 02:17:11;;;;;;;3.30;3.00;;;5.40;99.90;;;;;;5108628;28;20189;-74
2021/01/27 02:20:04;;;;;;;6.30;3.95;;;5.40;99.90;;;;;;5102168;28;20215;-75
2021/01/27 02:22:45;;;;;;;4.57;3.47;;;5.40;99.90;;;;;;5090699;28;20213;-76
2021/01/27 02:25:54;;;;;;;3.40;3.10;;;5.40;99.90;;;;;;5094055;28;20201;-75
2021/01/27 02:28:51;;;;;;;5.30;4.35;;;5.40;99.90;;;;;;5091569;28;20754;-76
2021/01/27 02:31:26;;;;;;;4.60;3.45;;;5.40;99.90;;;;;;5107601;28;20201;-76
2021/01/27 02:34:24;;;;;;;4.75;3.10;;;5.40;99.90;;;;;;5103452;28;20249;-76
2021/01/27 02:36:55;;;;;;;3.78;3.25;;;5.40;99.90;;;;;;5094338;28;20641;-76
2021/01/27 02:39:24;;;;;;;3.67;2.95;;;5.40;99.90;;;;;;5099107;28;20193;-76
2021/01/27 02:41:56;;;;;;;3.10;2.85;;;5.40;99.90;;;;;;5105345;28;20635;-77
2021/01/27 02:44:34;;;;;;;3.08;2.78;;;5.40;99.90;;;;;;5090523;28;20185;-76
2021/01/27 02:47:08;;;;;;;5.38;3.33;;;5.40;99.90;;;;;;5103317;28;20221;-77
2021/01/27 02:49:40;;;;;;;4.15;3.75;;;5.40;99.90;;;;;;5103690;28;20197;-76
2021/01/27 02:52:11;;;;;;;3.95;3.15;;;5.40;99.90;;;;;;5103042;28;20190;-75
2021/01/27 02:54:42;;;;;;;4.57;3.20;;;5.40;99.90;;;;;;5098495;28;20197;-75
2021/01/27 02:57:14;;;;;;;2.80;2.60;;;5.40;99.90;;;;;;5109206;28;20193;-76
2021/01/27 02:59:46;;;;;;;4.72;3.47;;;5.40;99.90;;;;;;5108733;28;20200;-76
2021/01/27 03:02:17;;;;;;;5.10;2.50;;;5.40;99.90;;;;;;5111596;28;20197;-74
2021/01/27 03:04:49;;;;;;;5.18;3.28;;;5.40;99.90;;;;;;5096834;28;20693;-75
2021/01/27 03:07:19;;;;;;;4.18;2.90;;;5.40;99.90;;;;;;5113265;28;20209;-75
2021/01/27 03:09:50;;;;;;;3.33;2.58;;;5.40;99.90;;;;;;5112783;28;20205;-75
2021/01/27 03:12:17;;;;;;;3.60;3.30;;;5.30;99.90;;;;;;5109004;28;20231;-75
2021/01/27 03:14:46;;;;;;;4.63;2.83;;;5.30;99.90;;;;;;5109529;28;20208;-75
2021/01/27 03:17:16;;;;;;;4.30;2.75;;;5.30;99.90;;;;;;5105689;28;20200;-75
2021/01/27 03:19:50;;;;;;;2.50;2.30;;;5.30;99.90;;;;;;5104285;28;20261;-76
2021/01/27 03:22:20;;;;;;;3.25;2.95;;;5.30;99.90;;;;;;5098609;28;20216;-76
2021/01/27 03:24:52;;;;;;;3.20;2.63;;;5.30;99.90;;;;;;5110390;28;20611;-75
2021/01/27 03:27:22;;;;;;;5.70;3.33;;;5.30;99.90;;;;;;5107442;28;20209;-76
2021/01/27 03:29:52;;;;;;;2.85;2.55;;;5.30;99.90;;;;;;5108984;28;20204;-76
2021/01/27 03:32:38;;;;;;;5.10;2.83;;;5.30;99.90;;;;;;5109220;28;20196;-75
2021/01/27 03:35:10;;;;;;;3.40;2.50;;;5.40;99.90;;;;;;5107055;28;20200;-75
2021/01/27 03:37:44;;;;;;;3.13;2.40;;;5.30;99.90;;;;;;5109781;28;20537;-75
2021/01/27 03:40:14;;;;;;;3.33;2.72;;;5.30;99.90;;;;;;5107067;28;20188;-75
2021/01/27 03:42:49;;;;;;;4.38;3.55;;;5.30;99.90;;;;;;5108952;28;20350;-75
2021/01/27 03:45:21;;;;;;;5.28;3.00;;;5.30;99.90;;;;;;5106670;28;20239;-75
2021/01/27 03:47:52;;;;;;;2.80;2.15;;;5.30;99.90;;;;;;5108675;28;20193;-75
2021/01/27 03:50:23;;;;;;;4.32;3.00;;;5.30;99.90;;;;;;5107394;28;20204;-75
2021/01/27 03:52:54;;;;;;;2.90;2.70;;;5.30;99.90;;;;;;5109835;28;20193;-76
2021/01/27 03:55:28;;;;;;;3.90;3.13;;;5.30;99.90;;;;;;5106273;28;20197;-76
2021/01/27 03:58:01;;;;;;;2.92;2.22;;;5.30;99.90;;;;;;5105693;28;20227;-75
2021/01/27 04:00:30;;;;;;;3.65;2.30;;;5.30;99.90;;;;;;5106974;28;20197;-75
2021/01/27 04:03:01;;;;;;;2.50;2.30;;;5.30;99.90;;;;;;5108569;28;20243;-76
2021/01/27 04:05:27;;;;;;;2.50;2.30;;;5.30;99.90;;;;;;5105634;28;20200;-76
2021/01/27 04:07:54;;;;;;;2.60;2.35;;;5.30;99.90;;;;;;5109174;28;20210;-76
2021/01/27 04:10:20;;;;;;;3.63;3.28;;;5.30;99.90;;;;;;5108686;28;20192;-75
2021/01/27 04:12:47;;;;;;;4.40;2.60;;;5.30;99.90;;;;;;5108517;28;20196;-75
2021/01/27 04:15:13;;;;;;;3.10;2.80;;;5.20;99.90;;;;;;5108289;28;20193;-76
2021/01/27 04:17:40;;;;;;;3.40;3.00;;;5.20;99.90;;;;;;5107884;28;20189;-75
2021/01/27 04:20:07;;;;;;;2.80;2.50;;;5.20;99.90;;;;;;5109084;28;20193;-74
2021/01/27 04:22:33;;;;;;;4.75;2.15;;;5.20;99.90;;;;;;5103697;28;20209;-75
2021/01/27 04:25:00;;;;;;;4.43;3.33;;;5.20;99.90;;;;;;5106362;28;20533;-75
2021/01/27 04:27:27;;;;;;;2.60;2.40;;;5.20;99.90;;;;;;5107744;28;20203;-75
2021/01/27 04:29:53;;;;;;;2.65;2.20;;;5.20;99.90;;;;;;5106930;28;20193;-75
2021/01/27 04:32:19;;;;;;;2.70;2.50;;;5.20;99.90;;;;;;5108336;28;20197;-75
2021/01/27 04:34:46;;;;;;;2.63;2.40;;;5.20;99.90;;;;;;5106779;28;20209;-75
2021/01/27 04:37:12;;;;;;;3.55;2.40;;;5.20;99.90;;;;;;5106927;28;20207;-74
2021/01/27 04:39:38;;;;;;;3.17;2.53;;;5.20;99.90;;;;;;5107455;28;20201;-75
2021/01/27 04:42:08;;;;;;;3.28;2.55;;;5.20;99.90;;;;;;5103745;28;20209;-74
2021/01/27 04:44:34;;;;;;;2.70;2.38;;;5.20;99.90;;;;;;5107665;28;20207;-76
2021/01/27 04:47:08;;;;;;;2.88;2.55;;;5.20;99.90;;;;;;5107366;28;20224;-76
2021/01/27 04:49:40;;;;;;;2.75;2.05;;;5.20;99.90;;;;;;5102760;28;20291;-78
2021/01/27 04:52:13;;;;;;;2.85;2.60;;;5.20;99.90;;;;;;5107889;28;20193;-76
2021/01/27 04:54:59;;;;;;;3.90;2.95;;;5.20;99.90;;;;;;5105762;28;22159;-77
2021/01/27 04:57:44;;;;;;;5.00;2.40;;;5.10;99.90;;;;;;5107122;28;20192;-78
2021/01/27 05:00:19;;;;;;;4.18;2.92;;;5.10;99.90;;;;;;5106593;28;20193;-77
2021/01/27 05:02:53;;;;;;;2.55;2.35;;;5.20;99.90;;;;;;5105084;28;20204;-77
2021/01/27 05:05:24;;;;;;;2.58;2.22;;;5.20;99.90;;;;;;5106349;28;20196;-77
2021/01/27 05:08:03;;;;;;;3.67;2.60;;;5.20;99.90;;;;;;5107324;28;20189;-76
2021/01/27 05:10:37;;;;;;;3.20;2.63;;;5.20;99.90;;;;;;5106582;28;20192;-76
2021/01/27 05:13:10;;;;;;;2.33;1.95;;;5.20;99.90;;;;;;5105328;28;20242;-77
2021/01/27 05:15:37;;;;;;;2.30;2.10;;;5.20;99.90;;;;;;5101668;28;20201;-77
2021/01/27 05:18:03;;;;;;;2.97;2.53;;;5.10;99.90;;;;;;5095055;28;20208;-76
2021/01/27 05:20:29;;;;;;;3.60;2.28;;;5.10;99.90;;;;;;5097955;28;20193;-76
2021/01/27 05:22:57;;;;;;;2.92;2.20;;;5.20;99.90;;;;;;5106379;28;20246;-77
2021/01/27 05:25:38;;;;;;;2.78;2.55;;;5.20;99.90;;;;;;5104747;28;20188;-77
2021/01/27 05:28:11;;;;;;;3.20;2.25;;;5.20;99.90;;;;;;5107450;28;20197;-76
2021/01/27 05:30:46;;;;;;;3.63;2.42;;;5.20;99.90;;;;;;5107419;28;20189;-78
2021/01/27 05:33:12;;;;;;;4.20;2.85;;;5.20;99.90;;;;;;5102334;28;20212;-77
2021/01/27 05:35:40;;;;;;;3.60;2.20;;;5.20;99.90;;;;;;5105569;28;20204;-78
2021/01/27 05:38:30;;;;;;;2.05;1.80;;;5.10;99.90;;;;;;5104224;28;20209;-77
2021/01/27 05:41:07;;;;;;;2.35;2.10;;;5.10;99.90;;;;;;5106736;28;20216;-78
2021/01/27 05:43:37;;;;;;;2.83;2.10;;;5.20;99.90;;;;;;5102745;28;20658;-77
2021/01/27 05:46:12;;;;;;;3.05;2.30;;;5.20;99.90;;;;;;5104425;28;20224;-77
2021/01/27 05:48:44;;;;;;;2.13;1.92;;;5.20;99.90;;;;;;5105165;28;20192;-76
2021/01/27 05:51:14;;;;;;;2.63;2.22;;;5.20;99.90;;;;;;5105989;28;20185;-77
2021/01/27 05:53:42;;;;;;;2.30;2.10;;;5.20;99.90;;;;;;5105892;28;20211;-77
2021/01/27 05:56:15;;;;;;;2.72;2.30;;;5.20;99.90;;;;;;5105327;28;20227;-76
2021/01/27 05:58:46;;;;;;;2.83;2.63;;;5.20;99.90;;;;;;5104782;28;20205;-76
2021/01/27 06:01:28;;;;;;;1.90;1.70;;;5.20;99.90;;;;;;5104183;28;20223;-76
2021/01/27 06:03:58;;;;;;;1.90;1.80;;;5.30;99.90;;;;;;5106730;28;20299;-77
2021/01/27 06:06:28;;;;;;;2.85;2.65;;;5.20;99.90;;;;;;5105416;28;20254;-76
2021/01/27 06:08:57;;;;;;;9.00;2.45;;;5.20;99.90;;;;;;5107549;28;20219;-76
2021/01/27 06:11:24;;;;;;;2.60;2.10;;;5.20;99.90;;;;;;5106678;28;20188;-77
2021/01/27 06:14:05;;;;;;;2.15;1.95;;;5.20;99.90;;;;;;5104028;28;20204;-77
2021/01/27 06:16:34;;;;;;;2.13;1.92;;;5.20;99.90;;;;;;5106767;28;20242;-77
2021/01/27 06:19:10;;;;;;;3.20;2.40;;;5.20;99.90;;;;;;5104630;28;20192;-77
2021/01/27 06:21:50;;;;;;;4.05;2.35;;;5.20;99.90;;;;;;5104986;28;20846;-77
2021/01/27 06:24:46;;;;;;;3.75;2.15;;;5.20;99.90;;;;;;5105849;28;20204;-77
2021/01/27 06:27:50;;;;;;;2.63;2.42;;;5.20;99.90;;;;;;5103554;28;20196;-76
2021/01/27 06:30:36;;;;;;;2.45;1.98;;;5.20;99.90;;;;;;5107415;28;20197;-77
2021/01/27 06:33:24;;;;;;;2.28;2.08;;;5.20;99.90;;;;;;5087176;28;20193;-77
2021/01/27 06:36:03;;;;;;;2.22;1.88;;;5.20;99.90;;;;;;5106611;28;20189;-76
2021/01/27 06:39:03;;;;;;;2.30;1.90;;;5.20;99.90;;;;;;5109092;28;20189;-76
2021/01/27 06:41:54;;;;;;;3.03;2.55;;;5.20;99.90;;;;;;5104841;28;20216;-76
2021/01/27 06:44:29;;;;;;;2.83;1.90;;;5.20;99.90;;;;;;5108619;28;20193;-75
2021/01/27 06:47:07;;;;;;;2.20;1.88;;;5.10;99.90;;;;;;5111355;28;20224;-77
2021/01/27 06:50:16;;;;;;;4.57;1.90;;;5.20;99.90;;;;;;5108954;28;20530;-77
2021/01/27 06:53:16;;;;;;;2.08;1.88;;;5.10;99.90;;;;;;5071284;28;20205;-77
2021/01/27 06:56:00;;;;;;;4.40;2.17;;;5.10;99.90;;;;;;5101743;28;20200;-77
2021/01/27 06:58:49;;;;;;;3.00;2.03;;;5.20;99.90;;;;;;5103202;28;20771;-77
2021/01/27 07:01:28;;;;;;;2.95;1.98;;;5.20;99.90;;;;;;5113473;28;20223;-77
2021/01/27 07:04:28;;;;;;;2.33;2.10;;;5.20;99.90;;;;;;5112989;28;20196;-77
2021/01/27 07:07:25;;;;;;;2.33;1.80;;;5.10;99.90;;;;;;5093520;28;20197;-76
2021/01/27 07:10:07;;;;;;;2.10;1.75;;;5.20;99.90;;;;;;5098927;28;20325;-76
2021/01/27 07:12:39;;;;;;;1.60;1.50;;;5.20;99.90;;;;;;5094843;28;20210;-76
2021/01/27 07:15:24;;;;;;;2.60;2.35;;;5.20;99.90;;;;;;5103340;28;20185;-76
2021/01/27 07:18:22;;;;;;;2.50;2.30;;;5.20;99.90;;;;;;5095022;28;20204;-76
2021/01/27 07:20:54;;;;;;;2.40;2.03;;;5.10;99.90;;;;;;5099641;28;20203;-76
2021/01/27 07:23:25;;;;;;;2.55;2.15;;;5.20;99.90;;;;;;5093498;28;20182;-76
2021/01/27 07:26:06;;;;;;;3.08;1.80;;;5.10;99.90;;;;;;5112664;28;20250;-76
2021/01/27 07:28:38;;;;;;;1.70;1.60;;;5.20;99.90;;;;;;5113956;28;20200;-74
2021/01/27 07:31:11;;;;;;;3.17;2.63;;;5.20;99.90;;;;;;5097655;28;20209;-74
2021/01/27 07:33:45;;;;;;;2.50;2.30;;;5.20;99.90;;;;;;5111269;28;20196;-74
2021/01/27 07:36:37;;;;;;;2.33;2.13;;;5.20;99.90;;;;;;5106659;28;20204;-74
2021/01/27 07:39:10;;;;;;;2.20;2.00;;;5.20;99.90;;;;;;5091478;28;20201;-76
2021/01/27 07:41:46;;;;;;;3.28;2.30;;;5.20;99.90;;;;;;5092923;28;20210;-76
2021/01/27 07:44:16;;;;;;;2.70;1.90;;;5.20;99.90;;;;;;5093460;28;20208;-77
2021/01/27 07:46:50;;;;;;;1.83;1.60;;;5.20;99.90;;;;;;5099604;28;20316;-76
2021/01/27 07:49:25;;;;;;;3.35;2.10;;;5.20;99.90;;;;;;5098397;28;20202;-77
2021/01/27 07:51:58;;;;;;;2.20;1.70;;;5.30;99.90;;;;;;5101303;28;20617;-76
2021/01/27 07:54:30;;;;;;;3.70;1.88;;;5.20;99.90;;;;;;5105003;28;20215;-75
2021/01/27 07:57:01;;;;;;;2.05;1.85;;;5.20;99.90;;;;;;5110794;28;20190;-75
2021/01/27 07:59:32;;;;;;;2.75;1.92;;;5.20;99.90;;;;;;5096658;28;20208;-75
2021/01/27 08:02:05;;;;;;;2.25;2.03;;;5.20;99.90;;;;;;5102121;28;20205;-76
2021/01/27 08:04:38;;;;;;;2.53;2.33;;;5.20;99.90;;;;;;5092879;28;20189;-75
2021/01/27 08:07:06;;;;;;;1.75;1.58;;;5.20;99.90;;;;;;5097932;28;20189;-76
2021/01/27 08:09:35;;;;;;;2.13;1.70;;;5.20;99.90;;;;;;5108157;28;20189;-76
2021/01/27 08:12:18;;;;;;;2.38;2.17;;;5.20;99.90;;;;;;5106569;28;20258;-75
2021/01/27 08:15:07;;;;;;;2.08;1.70;;;5.20;99.90;;;;;;5110486;28;20193;-75
2021/01/27 08:18:01;;;;;;;1.92;1.73;;;5.20;99.90;;;;;;5107296;28;20193;-75
2021/01/27 08:20:31;;;;;;;3.05;2.53;;;5.20;99.90;;;;;;5092444;28;20289;-75
2021/01/27 08:23:00;;;;;;;2.47;2.15;;;5.20;99.90;;;;;;5107013;28;20213;-75
2021/01/27 08:25:49;;;;;;;2.20;2.00;;;5.20;99.90;;;;;;5110152;28;20200;-74
2021/01/27 08:28:25;;;;;;;2.47;1.80;;;5.20;99.90;;;;;;5107830;28;20197;-75
2021/01/27 08:31:20;;;;;;;2.15;1.65;;;5.20;99.90;;;;;;5107844;28;20189;-75
2021/01/27 08:33:58;;;;;;;3.17;1.80;;;5.10;99.90;;;;;;5091986;28;20858;-76
2021/01/27 08:37:02;;;;;;;5.55;1.90;;;5.10;99.90;;;;;;5094873;28;20617;-76
2021/01/27 08:39:31;;;;;;;2.60;1.73;;;5.10;99.90;;;;;;5091911;28;20201;-76
2021/01/27 08:42:00;;;;;;;1.95;1.50;;;5.10;99.90;;;;;;5098522;28;20215;-76
2021/01/27 08:44:31;;;;;;;2.65;2.13;;;5.20;99.90;;;;;;5096831;28;20250;-76
2021/01/27 08:47:00;;;;;;;1.70;1.35;;;5.10;99.90;;;;;;5107025;27;20591;-76
2021/01/27 08:49:52;;;;;;;1.77;1.67;;;5.20;99.90;;;;;;5103581;28;20202;-75
2021/01/27 08:52:43;;;;;;;1.60;1.35;;;5.20;99.90;;;;;;5093116;28;20209;-76
2021/01/27 08:55:32;;;;;;;1.55;1.45;;;5.20;99.90;;;;;;5091650;28;20198;-76
2021/01/27 08:58:27;;;;;;;2.33;2.13;;;5.20;99.90;;;;;;5105842;28;20189;-74
2021/01/27 09:00:54;;;;;;;2.00;1.80;;;5.20;99.90;;;;;;5091132;28;20189;-74
2021/01/27 09:03:58;;;;;;;2.95;1.70;;;5.20;99.90;;;;;;5091442;28;20221;-74
2021/01/27 09:06:41;;;;;;;2.70;1.77;;;5.20;99.90;;;;;;5094502;28;20198;-74
2021/01/27 09:09:36;;;;;;;1.73;1.63;;;5.20;99.90;;;;;;5091378;28;20714;-74
2021/01/27 09:12:06;;;;;;;2.30;2.10;;;5.20;99.90;;;;;;5089345;28;20233;-73
2021/01/27 09:14:38;;;;;;;2.50;1.65;;;5.20;99.90;;;;;;5109143;28;20208;-71
2021/01/27 09:17:07;;;;;;;2.70;2.10;;;5.20;99.90;;;;;;5095331;28;20196;-74
2021/01/27 09:19:38;;;;;;;2.03;1.63;;;5.20;99.90;;;;;;5108305;28;20213;-73
2021/01/27 09:22:11;;;;;;;2.05;1.75;;;5.30;99.90;;;;;;5090849;28;20217;-73
2021/01/27 09:24:42;;;;;;;2.28;1.80;;;5.30;99.90;;;;;;5108421;28;20237;-73
2021/01/27 09:27:20;;;;;;;2.22;1.70;;;5.40;99.90;;;;;;5105039;28;20198;-71
2021/01/27 09:29:55;;;;;;;2.13;1.80;;;5.30;99.90;;;;;;5101041;27;20212;-71
2021/01/27 09:32:21;;;;;;;1.90;1.70;;;5.40;99.90;;;;;;5107708;28;20220;-72
2021/01/27 09:34:49;;;;;;;2.17;1.73;;;5.30;99.90;;;;;;5108850;27;20249;-73
2021/01/27 09:37:18;;;;;;;1.63;1.50;;;5.30;99.90;;;;;;5090938;28;20204;-73
2021/01/27 09:39:50;;;;;;;2.20;2.00;;;5.40;99.90;;;;;;5091187;28;20529;-72
2021/01/27 09:42:23;;;;;;;2.05;1.85;;;5.60;99.90;;;;;;5098080;28;20221;-72
2021/01/27 09:44:57;;;;;;;1.80;1.70;;;5.30;99.90;;;;;;5090696;28;20205;-74
2021/01/27 09:47:24;;;;;;;2.47;1.90;;;6.50;99.90;;;;;;5091696;28;20192;-73
2021/01/27 09:49:53;;;;;;;2.15;1.30;;;5.30;99.90;;;;;;5111077;28;20293;-73
2021/01/27 09:52:20;;;;;;;2.10;1.90;;;5.30;99.90;;;;;;5110768;28;20243;-73
2021/01/27 09:54:50;;;;;;;1.50;1.40;;;5.80;99.90;;;;;;5106699;28;20222;-73
2021/01/27 09:57:20;;;;;;;2.25;1.83;;;5.90;99.90;;;;;;5092583;28;20212;-71
2021/01/27 09:59:51;;;;;;;1.95;1.48;;;5.30;99.90;;;;;;5115668;28;20259;-72
2021/01/27 10:02:27;;;;;;;1.95;1.60;;;5.30;99.90;;;;;;5129125;27;20208;-82
2021/01/27 10:04:54;;;;;;;5.03;2.50;;;5.30;99.90;;;;;;5090942;28;20181;-80
2021/01/27 10:07:24;;;;;;;2.38;1.73;;;5.40;99.90;;;;;;5108040;28;20230;-79
2021/01/27 10:09:53;;;;;;;1.98;1.77;;;5.30;99.90;;;;;;5112592;28;20703;-75
2021/01/27 10:12:26;;;;;;;2.97;2.35;;;6.20;99.90;;;;;;5095619;28;20276;-72
2021/01/27 10:15:07;;;;;;;4.55;1.50;;;5.40;99.90;;;;;;5107935;28;20195;-72
2021/01/27 10:17:33;;;;;;;2.22;1.88;;;5.40;99.90;;;;;;5110958;28;20241;-74
2021/01/27 10:20:24;;;;;;;5.57;1.45;;;5.30;99.90;;;;;;5095790;28;20562;-74
2021/01/27 10:23:00;;;;;;;2.25;2.00;;;5.40;99.90;;;;;;5100366;28;20201;-73
2021/01/27 10:25:30;;;;;;;3.33;1.95;;;5.40;99.90;;;;;;5111085;28;20199;-74
2021/01/27 10:28:06;;;;;;;2.13;1.73;;;5.40;99.90;;;;;;5105218;28;20613;-72
2021/01/27 10:30:41;;;;;;;1.30;1.10;;;5.40;99.90;;;;;;5109070;28;20204;-74
2021/01/27 10:33:39;;;;;;;1.60;1.50;;;5.40;99.90;;;;;;5115194;27;20195;-74
2021/01/27 10:36:31;;;;;;;1.65;1.50;;;5.30;99.90;;;;;;5093980;28;20259;-74
2021/01/27 10:39:19;;;;;;;1.83;1.73;;;5.30;99.90;;;;;;5111142;28;20195;-74
2021/01/27 10:41:47;;;;;;;3.60;1.55;;;5.40;99.90;;;;;;5112456;28;20219;-73
2021/01/27 10:44:27;;;;;;;1.70;1.60;;;5.40;99.90;;;;;;5114150;28;20648;-73
2021/01/27 10:46:56;;;;;;;2.10;1.42;;;5.40;99.90;;;;;;5104399;28;20278;-73
2021/01/27 10:49:23;;;;;;;2.05;1.85;;;5.40;99.90;;;;;;5107356;28;20249;-73
2021/01/27 10:51:49;;;;;;;1.83;1.63;;;5.40;99.90;;;;;;5103654;28;20213;-74
2021/01/27 10:54:20;;;;;;;1.83;1.40;;;5.40;99.90;;;;;;5097278;28;20568;-74
2021/01/27 10:56:51;;;;;;;1.52;1.40;;;5.40;99.90;;;;;;5094040;28;20250;-73
2021/01/27 10:59:17;;;;;;;2.42;1.70;;;5.40;99.90;;;;;;5112773;28;20193;-73
2021/01/27 11:01:44;;;;;;;2.10;1.63;;;5.40;99.90;;;;;;5110161;28;20238;-73
2021/01/27 11:04:10;;;;;;;2.53;2.17;;;5.40;99.90;;;;;;5103185;28;20192;-73
2021/01/27 11:06:38;;;;;;;2.08;1.52;;;5.40;99.90;;;;;;5113988;28;20532;-74
2021/01/27 11:09:04;;;;;;;1.77;1.60;;;5.50;99.90;;;;;;5100519;28;20194;-73
2021/01/27 11:11:31;;;;;;;1.45;1.35;;;5.40;99.90;;;;;;5108576;28;20201;-73
2021/01/27 11:13:57;;;;;;;2.78;1.80;;;5.50;99.90;;;;;;5107308;28;20201;-74
2021/01/27 11:16:23;;;;;;;1.92;1.50;;;5.50;99.90;;;;;;5094410;28;20255;-74
2021/01/27 11:18:50;;;;;;;1.60;1.50;;;5.50;99.90;;;;;;5109822;28;20210;-73
2021/01/27 11:21:18;;;;;;;2.17;1.92;;;5.40;99.90;;;;;;5092756;28;20194;-74
2021/01/27 11:23:44;;;;;;;2.03;1.60;;;5.50;99.90;;;;;;5095860;28;21647;-73
2021/01/27 11:26:10;;;;;;;1.55;1.10;;;5.50;99.90;;;;;;5113434;28;20193;-73
2021/01/27 11:28:36;;;;;;;1.65;1.40;;;5.50;99.90;;;;;;5097310;28;20685;-74
2021/01/27 11:31:02;;;;;;;2.80;1.75;;;5.50;99.90;;;;;;5104190;28;20200;-73
2021/01/27 11:33:29;;;;;;;1.95;1.75;;;5.50;99.90;;;;;;5101909;28;20704;-73
2021/01/27 11:35:56;;;;;;;2.45;2.00;;;5.50;99.90;;;;;;5092990;28;20251;-74
2021/01/27 11:38:22;;;;;;;1.42;1.33;;;5.50;99.90;;;;;;5106584;28;20189;-73
2021/01/27 11:40:48;;;;;;;1.88;1.77;;;5.40;99.90;;;;;;5112275;28;20254;-74
2021/01/27 11:43:15;;;;;;;2.05;1.65;;;5.50;99.90;;;;;;5110399;28;20220;-74
2021/01/27 11:45:41;;;;;;;2.08;1.70;;;5.40;99.90;;;;;;5106786;28;20217;-74
2021/01/27 11:48:09;;;;;;;1.85;1.48;;;5.50;99.90;;;;;;5103285;28;20208;-75
2021/01/27 11:50:37;;;;;;;2.03;1.65;;;5.50;99.90;;;;;;5112505;28;20228;-74
2021/01/27 11:53:09;;;;;;;2.10;1.90;;;5.50;99.90;;;;;;5113116;28;20193;-74
2021/01/27 11:58:58;;;;;;;2.10;1.90;;;5.50;99.90;;;;;;5106106;28;20270;-73
2021/01/27 12:01:26;;;;;;;1.70;1.60;;;5.50;99.90;;;;;;5112648;28;20200;-74
2021/01/27 12:03:53;;;;;;;2.53;1.70;;;5.40;99.90;;;;;;5112961;28;20200;-73
2021/01/27 12:06:19;;;;;;;1.90;1.52;;;5.50;99.90;;;;;;5104115;28;20255;-73
2021/01/27 12:08:46;;;;;;;1.80;1.50;;;5.50;99.90;;;;;;5097536;28;20423;-74
2021/01/27 12:11:12;;;;;;;1.42;1.23;;;5.50;99.90;;;;;;5106733;28;20212;-72
2021/01/27 12:13:38;;;;;;;1.75;1.50;;;5.50;99.90;;;;;;5092740;28;20258;-74
2021/01/27 12:16:05;;;;;;;1.88;1.70;;;5.50;99.90;;;;;;5109276;28;20193;-74
2021/01/27 12:18:32;;;;;;;2.17;1.33;;;5.50;99.90;;;;;;5113137;28;20197;-73
2021/01/27 12:20:58;;;;;;;1.48;1.30;;;5.60;99.90;;;;;;5108786;28;20197;-74
2021/01/27 12:23:24;;;;;;;2.03;1.70;;;5.50;99.90;;;;;;5102004;28;20213;-72
2021/01/27 12:25:51;;;;;;;1.70;1.20;;;5.60;99.90;;;;;;5106567;28;20660;-75
2021/01/27 12:28:17;;;;;;;1.35;1.20;;;5.50;99.90;;;;;;5112591;28;20621;-76
2021/01/27 12:30:43;;;;;;;1.70;1.48;;;5.60;99.90;;;;;;5111293;28;20200;-75
2021/01/27 12:33:10;;;;;;;1.75;1.50;;;5.60;99.90;;;;;;5092243;28;20189;-77
2021/01/27 12:35:36;;;;;;;2.17;1.77;;;5.60;99.90;;;;;;5102972;28;20196;-77
2021/01/27 12:38:04;;;;;;;1.73;1.48;;;5.60;99.90;;;;;;5112262;28;20185;-77
2021/01/27 12:40:30;;;;;;;1.75;1.48;;;5.60;99.90;;;;;;5105667;28;20797;-77
2021/01/27 12:42:58;;;;;;;1.58;1.48;;;5.60;99.90;;;;;;5095508;28;20506;-76
2021/01/27 12:45:27;;;;;;;1.80;1.40;;;5.60;99.90;;;;;;5108142;28;20247;-77
2021/01/27 12:47:53;;;;;;;2.00;1.50;;;5.60;99.90;;;;;;5092461;28;20200;-75
2021/01/27 12:50:21;;;;;;;1.52;1.33;;;5.60;99.90;;;;;;5105597;28;20193;-76
2021/01/27 12:52:47;;;;;;;2.10;1.90;;;5.60;99.90;;;;;;5093856;28;20197;-77
2021/01/27 12:55:16;;;;;;;1.58;1.30;;;5.60;99.90;;;;;;5112165;28;20196;-73
2021/01/27 12:57:44;;;;;;;1.88;1.75;;;5.70;99.90;;;;;;5109385;28;20222;-76
2021/01/27 13:00:15;;;;;;;2.70;1.60;;;5.60;99.90;;;;;;5098802;28;20194;-73
2021/01/27 13:02:41;;;;;;;2.28;1.60;;;5.60;99.90;;;;;;5091621;28;20198;-74
2021/01/27 13:05:09;;;;;;;1.75;1.65;;;5.60;99.90;;;;;;5111400;28;20239;-77
2021/01/27 13:07:35;;;;;;;1.45;1.35;;;5.60;99.90;;;;;;5109752;28;20281;-76
2021/01/27 13:10:01;;;;;;;1.25;1.15;;;5.60;99.90;;;;;;5092482;28;20197;-77
2021/01/27 13:12:28;;;;;;;2.33;1.10;;;5.70;99.90;;;;;;5090755;28;20359;-77
2021/01/27 13:14:54;;;;;;;1.60;1.50;;;5.60;99.90;;;;;;5109855;28;20746;-76
2021/01/27 13:17:21;;;;;;;1.40;1.30;;;5.70;99.90;;;;;;5091754;28;20289;-77
2021/01/27 13:19:52;;;;;;;1.83;1.65;;;5.60;99.90;;;;;;5101421;28;20197;-70
2021/01/27 13:22:28;;;;;;;2.10;1.90;;;5.60;99.90;;;;;;5090754;28;20300;-70
2021/01/27 13:24:56;;;;;;;1.70;1.60;;;5.70;99.90;;;;;;5108110;28;20192;-70
2021/01/27 13:27:30;;;;;;;2.53;1.98;;;5.70;99.90;;;;;;5094847;28;20276;-71
2021/01/27 13:30:03;;;;;;;1.65;1.55;;;5.70;99.90;;;;;;5095824;28;20196;-72